sensor_id;sensor_type;location;lat;lon;timestamp;temperature;humidity
4374;DHT22;2201;51.100;6.814;2023-07-24T00:00:16;20.00;98.20
4374;DHT22;2201;51.100;6.814;2023-07-24T00:02:44;19.90;98.20
4374;DHT22;2201;51.100;6.814;2023-07-24T00:05:11;19.90;98.20
4374;DHT22;2201;51.100;6.814;2023-07-24T00:07:37;19.80;98.20
4374;DHT22;2201;51.100;6.814;2023-07-24T00:10:04;19.80;98.20
4374;DHT22;2201;51.100;6.814;2023-07-24T00:12:31;19.80;98.20
4374;DHT22;2201;51.100;6.814;2023-07-24T00:14:58;19.70;98.20
4374;DHT22;2201;51.100;6.814;2023-07-24T00:17:25;19.70;98.20
4374;DHT22;2201;51.100;6.814;2023-07-24T00:19:53;19.70;98.20
4374;DHT22;2201;51.100;6.814;2023-07-24T00:22:20;19.60;98.20
4374;DHT22;2201;51.100;6.814;2023-07-24T00:24:47;19.60;98.20
4374;DHT22;2201;51.100;6.814;2023-07-24T00:27:14;19.60;98.20
4374;DHT22;2201;51.100;6.814;2023-07-24T00:29:40;19.50;98.20
4374;DHT22;2201;51.100;6.814;2023-07-24T00:32:08;19.50;98.20
4374;DHT22;2201;51.100;6.814;2023-07-24T00:34:35;19.40;98.20
4374;DHT22;2201;51.100;6.814;2023-07-24T00:37:03;19.40;98.20
4374;DHT22;2201;51.100;6.814;2023-07-24T00:39:30;19.40;98.20
4374;DHT22;2201;51.100;6.814;2023-07-24T00:41:57;19.40;98.20
4374;DHT22;2201;51.100;6.814;2023-07-24T00:44:23;19.30;98.20
4374;DHT22;2201;51.100;6.814;2023-07-24T00:46:50;19.30;98.20
4374;DHT22;2201;51.100;6.814;2023-07-24T00:49:17;19.30;98.20
4374;DHT22;2201;51.100;6.814;2023-07-24T00:51:44;19.30;98.20
4374;DHT22;2201;51.100;6.814;2023-07-24T00:54:14;19.30;98.20
4374;DHT22;2201;51.100;6.814;2023-07-24T00:56:43;19.30;98.20
4374;DHT22;2201;51.100;6.814;2023-07-24T00:59:11;19.40;98.20
4374;DHT22;2201;51.100;6.814;2023-07-24T01:01:40;19.40;98.20
4374;DHT22;2201;51.100;6.814;2023-07-24T01:04:08;19.40;98.20
4374;DHT22;2201;51.100;6.814;2023-07-24T01:06:35;19.40;98.20
4374;DHT22;2201;51.100;6.814;2023-07-24T01:09:01;19.50;98.20
4374;DHT22;2201;51.100;6.814;2023-07-24T01:11:34;19.50;98.20
4374;DHT22;2201;51.100;6.814;2023-07-24T01:14:09;19.50;98.20
4374;DHT22;2201;51.100;6.814;2023-07-24T01:16:37;19.50;98.20
4374;DHT22;2201;51.100;6.814;2023-07-24T01:19:12;19.50;98.20
4374;DHT22;2201;51.100;6.814;2023-07-24T01:21:45;19.50;98.20
4374;DHT22;2201;51.100;6.814;2023-07-24T01:24:24;19.50;98.20
4374;DHT22;2201;51.100;6.814;2023-07-24T01:26:57;19.40;98.20
4374;DHT22;2201;51.100;6.814;2023-07-24T01:29:24;19.40;98.20
4374;DHT22;2201;51.100;6.814;2023-07-24T01:31:51;19.40;98.20
4374;DHT22;2201;51.100;6.814;2023-07-24T01:34:18;19.30;98.20
4374;DHT22;2201;51.100;6.814;2023-07-24T01:36:44;19.30;98.20
4374;DHT22;2201;51.100;6.814;2023-07-24T01:39:12;19.20;98.20
4374;DHT22;2201;51.100;6.814;2023-07-24T01:41:39;19.20;98.20
4374;DHT22;2201;51.100;6.814;2023-07-24T01:44:07;19.20;98.20
4374;DHT22;2201;51.100;6.814;2023-07-24T01:46:34;19.20;98.20
4374;DHT22;2201;51.100;6.814;2023-07-24T01:49:00;19.20;98.20
4374;DHT22;2201;51.100;6.814;2023-07-24T01:51:27;19.20;98.20
4374;DHT22;2201;51.100;6.814;2023-07-24T01:53:54;19.20;98.20
4374;DHT22;2201;51.100;6.814;2023-07-24T01:56:21;19.10;98.20
4374;DHT22;2201;51.100;6.814;2023-07-24T01:58:47;19.10;98.20
4374;DHT22;2201;51.100;6.814;2023-07-24T02:01:16;19.10;98.20
4374;DHT22;2201;51.100;6.814;2023-07-24T02:03:42;19.10;98.20
4374;DHT22;2201;51.100;6.814;2023-07-24T02:06:09;19.10;98.20
4374;DHT22;2201;51.100;6.814;2023-07-24T02:08:36;19.10;98.20
4374;DHT22;2201;51.100;6.814;2023-07-24T02:11:03;19.10;98.20
4374;DHT22;2201;51.100;6.814;2023-07-24T02:13:29;19.00;98.20
4374;DHT22;2201;51.100;6.814;2023-07-24T02:15:56;19.10;98.20
4374;DHT22;2201;51.100;6.814;2023-07-24T02:18:24;19.10;98.20
4374;DHT22;2201;51.100;6.814;2023-07-24T02:20:51;19.10;98.20
4374;DHT22;2201;51.100;6.814;2023-07-24T02:23:18;19.10;98.20
4374;DHT22;2201;51.100;6.814;2023-07-24T02:25:44;19.10;98.20
4374;DHT22;2201;51.100;6.814;2023-07-24T02:28:11;19.10;98.20
4374;DHT22;2201;51.100;6.814;2023-07-24T02:30:38;19.10;98.20
4374;DHT22;2201;51.100;6.814;2023-07-24T02:33:05;19.10;98.20
4374;DHT22;2201;51.100;6.814;2023-07-24T02:35:38;19.10;98.20
4374;DHT22;2201;51.100;6.814;2023-07-24T02:38:06;19.10;98.20
4374;DHT22;2201;51.100;6.814;2023-07-24T02:40:32;19.10;98.20
4374;DHT22;2201;51.100;6.814;2023-07-24T02:42:59;19.10;98.20
4374;DHT22;2201;51.100;6.814;2023-07-24T02:45:26;19.10;98.20
4374;DHT22;2201;51.100;6.814;2023-07-24T02:47:53;19.10;98.20
4374;DHT22;2201;51.100;6.814;2023-07-24T02:50:20;19.10;98.20
4374;DHT22;2201;51.100;6.814;2023-07-24T02:52:48;19.10;98.20
4374;DHT22;2201;51.100;6.814;2023-07-24T02:55:14;19.10;98.20
4374;DHT22;2201;51.100;6.814;2023-07-24T02:57:41;19.00;98.20
4374;DHT22;2201;51.100;6.814;2023-07-24T03:00:09;19.00;98.20
4374;DHT22;2201;51.100;6.814;2023-07-24T03:02:37;19.00;98.20
4374;DHT22;2201;51.100;6.814;2023-07-24T03:05:04;19.00;98.20
4374;DHT22;2201;51.100;6.814;2023-07-24T03:07:31;19.00;98.20
4374;DHT22;2201;51.100;6.814;2023-07-24T03:10:00;19.00;98.20
4374;DHT22;2201;51.100;6.814;2023-07-24T03:12:26;19.00;98.20
4374;DHT22;2201;51.100;6.814;2023-07-24T03:14:53;19.00;98.20
4374;DHT22;2201;51.100;6.814;2023-07-24T03:17:20;19.00;98.20
4374;DHT22;2201;51.100;6.814;2023-07-24T03:19:48;19.00;98.20
4374;DHT22;2201;51.100;6.814;2023-07-24T03:22:15;19.00;98.20
4374;DHT22;2201;51.100;6.814;2023-07-24T03:24:42;19.00;98.20
4374;DHT22;2201;51.100;6.814;2023-07-24T03:27:10;19.00;98.20
4374;DHT22;2201;51.100;6.814;2023-07-24T03:29:37;19.00;98.20
4374;DHT22;2201;51.100;6.814;2023-07-24T03:32:05;19.00;98.20
4374;DHT22;2201;51.100;6.814;2023-07-24T03:34:32;19.00;98.20
4374;DHT22;2201;51.100;6.814;2023-07-24T03:36:58;19.00;98.20
4374;DHT22;2201;51.100;6.814;2023-07-24T03:39:25;19.00;98.20
4374;DHT22;2201;51.100;6.814;2023-07-24T03:41:52;19.00;98.20
4374;DHT22;2201;51.100;6.814;2023-07-24T03:44:20;19.00;98.20
4374;DHT22;2201;51.100;6.814;2023-07-24T03:46:47;19.00;98.20
4374;DHT22;2201;51.100;6.814;2023-07-24T03:49:13;19.00;98.20
4374;DHT22;2201;51.100;6.814;2023-07-24T03:51:40;19.00;98.20
4374;DHT22;2201;51.100;6.814;2023-07-24T03:54:07;19.00;98.20
4374;DHT22;2201;51.100;6.814;2023-07-24T03:56:33;19.00;98.20
4374;DHT22;2201;51.100;6.814;2023-07-24T03:59:00;19.00;98.20
4374;DHT22;2201;51.100;6.814;2023-07-24T04:01:28;19.00;98.20
4374;DHT22;2201;51.100;6.814;2023-07-24T04:03:55;19.00;98.20
4374;DHT22;2201;51.100;6.814;2023-07-24T04:06:23;19.00;98.20
4374;DHT22;2201;51.100;6.814;2023-07-24T04:08:50;19.00;98.20
4374;DHT22;2201;51.100;6.814;2023-07-24T04:11:16;19.00;98.20
4374;DHT22;2201;51.100;6.814;2023-07-24T04:13:43;19.00;98.20
4374;DHT22;2201;51.100;6.814;2023-07-24T04:16:10;19.10;98.20
4374;DHT22;2201;51.100;6.814;2023-07-24T04:18:38;19.10;98.20
4374;DHT22;2201;51.100;6.814;2023-07-24T04:21:04;19.10;98.20
4374;DHT22;2201;51.100;6.814;2023-07-24T04:23:31;19.10;98.20
4374;DHT22;2201;51.100;6.814;2023-07-24T04:25:58;19.10;98.20
4374;DHT22;2201;51.100;6.814;2023-07-24T04:28:25;19.10;98.20
4374;DHT22;2201;51.100;6.814;2023-07-24T04:30:51;19.10;98.20
4374;DHT22;2201;51.100;6.814;2023-07-24T04:33:18;19.10;98.20
4374;DHT22;2201;51.100;6.814;2023-07-24T04:35:48;19.10;98.20
4374;DHT22;2201;51.100;6.814;2023-07-24T04:43:12;19.20;98.20
4374;DHT22;2201;51.100;6.814;2023-07-24T04:45:39;19.20;98.20
4374;DHT22;2201;51.100;6.814;2023-07-24T04:48:06;19.20;98.20
4374;DHT22;2201;51.100;6.814;2023-07-24T04:50:33;19.30;98.20
4374;DHT22;2201;51.100;6.814;2023-07-24T04:53:01;19.30;98.20
4374;DHT22;2201;51.100;6.814;2023-07-24T04:55:27;19.30;98.20
4374;DHT22;2201;51.100;6.814;2023-07-24T04:57:54;19.30;98.20
4374;DHT22;2201;51.100;6.814;2023-07-24T05:00:21;19.30;98.20
4374;DHT22;2201;51.100;6.814;2023-07-24T05:02:48;19.30;98.20
4374;DHT22;2201;51.100;6.814;2023-07-24T05:05:15;19.30;98.20
4374;DHT22;2201;51.100;6.814;2023-07-24T05:07:41;19.30;98.20
4374;DHT22;2201;51.100;6.814;2023-07-24T05:10:09;19.30;98.20
4374;DHT22;2201;51.100;6.814;2023-07-24T05:12:36;19.30;98.20
4374;DHT22;2201;51.100;6.814;2023-07-24T05:15:04;19.40;98.20
4374;DHT22;2201;51.100;6.814;2023-07-24T05:17:30;19.40;98.20
4374;DHT22;2201;51.100;6.814;2023-07-24T05:19:57;19.40;98.20
4374;DHT22;2201;51.100;6.814;2023-07-24T05:22:24;19.50;98.20
4374;DHT22;2201;51.100;6.814;2023-07-24T05:24:51;19.50;98.20
4374;DHT22;2201;51.100;6.814;2023-07-24T05:27:19;19.50;98.20
4374;DHT22;2201;51.100;6.814;2023-07-24T05:29:45;19.60;98.20
4374;DHT22;2201;51.100;6.814;2023-07-24T05:32:12;19.60;98.20
4374;DHT22;2201;51.100;6.814;2023-07-24T05:34:39;19.60;98.20
4374;DHT22;2201;51.100;6.814;2023-07-24T05:37:08;19.70;98.20
4374;DHT22;2201;51.100;6.814;2023-07-24T05:39:35;19.80;98.20
4374;DHT22;2201;51.100;6.814;2023-07-24T05:42:02;19.80;98.20
4374;DHT22;2201;51.100;6.814;2023-07-24T05:44:31;19.90;98.20
4374;DHT22;2201;51.100;6.814;2023-07-24T05:47:00;20.00;98.20
4374;DHT22;2201;51.100;6.814;2023-07-24T05:49:27;20.10;98.20
4374;DHT22;2201;51.100;6.814;2023-07-24T05:51:54;20.10;98.20
4374;DHT22;2201;51.100;6.814;2023-07-24T05:54:22;20.20;98.20
4374;DHT22;2201;51.100;6.814;2023-07-24T05:56:49;20.30;98.20
4374;DHT22;2201;51.100;6.814;2023-07-24T05:59:16;20.40;98.20
4374;DHT22;2201;51.100;6.814;2023-07-24T06:01:44;20.40;98.20
4374;DHT22;2201;51.100;6.814;2023-07-24T06:04:11;20.40;98.20
4374;DHT22;2201;51.100;6.814;2023-07-24T06:06:37;20.40;98.20
4374;DHT22;2201;51.100;6.814;2023-07-24T06:09:05;20.50;98.20
4374;DHT22;2201;51.100;6.814;2023-07-24T06:11:32;20.50;98.20
4374;DHT22;2201;51.100;6.814;2023-07-24T06:13:59;20.60;98.20
4374;DHT22;2201;51.100;6.814;2023-07-24T06:16:25;20.80;98.20
4374;DHT22;2201;51.100;6.814;2023-07-24T06:18:54;20.90;98.20
4374;DHT22;2201;51.100;6.814;2023-07-24T06:21:21;21.00;98.20
4374;DHT22;2201;51.100;6.814;2023-07-24T06:23:48;21.20;98.20
4374;DHT22;2201;51.100;6.814;2023-07-24T06:26:16;21.30;98.20
4374;DHT22;2201;51.100;6.814;2023-07-24T06:28:43;21.40;98.20
4374;DHT22;2201;51.100;6.814;2023-07-24T06:31:21;21.60;98.20
4374;DHT22;2201;51.100;6.814;2023-07-24T06:33:48;21.70;98.20
4374;DHT22;2201;51.100;6.814;2023-07-24T06:36:21;21.90;98.20
4374;DHT22;2201;51.100;6.814;2023-07-24T06:38:54;21.90;98.20
4374;DHT22;2201;51.100;6.814;2023-07-24T06:41:23;22.00;98.20
4374;DHT22;2201;51.100;6.814;2023-07-24T06:43:51;22.00;98.20
4374;DHT22;2201;51.100;6.814;2023-07-24T06:46:18;22.00;98.20
4374;DHT22;2201;51.100;6.814;2023-07-24T06:48:46;22.00;98.20
4374;DHT22;2201;51.100;6.814;2023-07-24T06:51:13;21.90;98.20
4374;DHT22;2201;51.100;6.814;2023-07-24T06:53:42;21.90;98.20
4374;DHT22;2201;51.100;6.814;2023-07-24T06:56:09;21.90;98.20
4374;DHT22;2201;51.100;6.814;2023-07-24T06:58:36;21.90;98.20
4374;DHT22;2201;51.100;6.814;2023-07-24T07:01:05;21.90;98.20
4374;DHT22;2201;51.100;6.814;2023-07-24T07:03:33;21.90;98.20
4374;DHT22;2201;51.100;6.814;2023-07-24T07:06:01;21.90;98.20
4374;DHT22;2201;51.100;6.814;2023-07-24T07:08:30;21.90;98.20
4374;DHT22;2201;51.100;6.814;2023-07-24T07:10:59;22.00;98.20
4374;DHT22;2201;51.100;6.814;2023-07-24T07:13:27;22.10;98.20
4374;DHT22;2201;51.100;6.814;2023-07-24T07:15:55;22.10;98.20
4374;DHT22;2201;51.100;6.814;2023-07-24T07:18:22;22.10;98.20
4374;DHT22;2201;51.100;6.814;2023-07-24T07:20:51;22.10;98.20
4374;DHT22;2201;51.100;6.814;2023-07-24T07:23:20;22.10;98.20
4374;DHT22;2201;51.100;6.814;2023-07-24T07:25:50;22.10;98.20
4374;DHT22;2201;51.100;6.814;2023-07-24T07:28:19;22.10;98.20
4374;DHT22;2201;51.100;6.814;2023-07-24T07:30:47;22.00;98.20
4374;DHT22;2201;51.100;6.814;2023-07-24T07:33:14;22.10;98.20
4374;DHT22;2201;51.100;6.814;2023-07-24T07:35:44;22.10;98.20
4374;DHT22;2201;51.100;6.814;2023-07-24T07:38:13;22.10;98.20
4374;DHT22;2201;51.100;6.814;2023-07-24T07:40:40;22.10;98.20
4374;DHT22;2201;51.100;6.814;2023-07-24T07:43:07;22.10;98.20
4374;DHT22;2201;51.100;6.814;2023-07-24T07:45:36;22.20;98.20
4374;DHT22;2201;51.100;6.814;2023-07-24T07:48:04;22.40;98.20
4374;DHT22;2201;51.100;6.814;2023-07-24T07:50:32;22.50;98.20
4374;DHT22;2201;51.100;6.814;2023-07-24T07:52:59;22.60;98.20
4374;DHT22;2201;51.100;6.814;2023-07-24T07:55:27;22.60;98.20
4374;DHT22;2201;51.100;6.814;2023-07-24T07:57:54;22.60;98.20
4374;DHT22;2201;51.100;6.814;2023-07-24T08:00:21;22.60;98.20
4374;DHT22;2201;51.100;6.814;2023-07-24T08:02:50;22.70;98.20
4374;DHT22;2201;51.100;6.814;2023-07-24T08:05:17;22.70;98.20
4374;DHT22;2201;51.100;6.814;2023-07-24T08:07:44;22.80;98.20
4374;DHT22;2201;51.100;6.814;2023-07-24T08:10:12;22.90;98.20
4374;DHT22;2201;51.100;6.814;2023-07-24T08:12:41;23.20;98.20
4374;DHT22;2201;51.100;6.814;2023-07-24T08:15:09;23.60;98.20
4374;DHT22;2201;51.100;6.814;2023-07-24T08:17:36;23.80;97.50
4374;DHT22;2201;51.100;6.814;2023-07-24T08:20:06;24.00;97.80
4374;DHT22;2201;51.100;6.814;2023-07-24T08:22:33;24.00;96.90
4374;DHT22;2201;51.100;6.814;2023-07-24T08:25:00;23.90;96.50
4374;DHT22;2201;51.100;6.814;2023-07-24T08:27:30;23.80;97.10
4374;DHT22;2201;51.100;6.814;2023-07-24T08:29:58;23.80;96.90
4374;DHT22;2201;51.100;6.814;2023-07-24T08:32:25;23.70;97.70
4374;DHT22;2201;51.100;6.814;2023-07-24T08:34:52;23.50;97.60
4374;DHT22;2201;51.100;6.814;2023-07-24T08:37:20;23.60;98.00
4374;DHT22;2201;51.100;6.814;2023-07-24T08:39:47;23.70;98.20
4374;DHT22;2201;51.100;6.814;2023-07-24T08:42:17;23.80;97.70
4374;DHT22;2201;51.100;6.814;2023-07-24T08:44:45;23.90;97.10
4374;DHT22;2201;51.100;6.814;2023-07-24T08:47:14;24.00;97.20
4374;DHT22;2201;51.100;6.814;2023-07-24T08:49:42;24.10;97.30
4374;DHT22;2201;51.100;6.814;2023-07-24T08:52:10;24.10;96.40
4374;DHT22;2201;51.100;6.814;2023-07-24T08:54:39;24.00;96.30
4374;DHT22;2201;51.100;6.814;2023-07-24T08:57:07;23.90;96.40
4374;DHT22;2201;51.100;6.814;2023-07-24T08:59:34;23.80;96.90
4374;DHT22;2201;51.100;6.814;2023-07-24T09:02:02;23.70;96.90
4374;DHT22;2201;51.100;6.814;2023-07-24T09:04:29;23.60;97.50
4374;DHT22;2201;51.100;6.814;2023-07-24T09:06:57;23.40;97.80
4374;DHT22;2201;51.100;6.814;2023-07-24T09:09:29;23.40;98.00
4374;DHT22;2201;51.100;6.814;2023-07-24T09:11:58;23.30;98.20
4374;DHT22;2201;51.100;6.814;2023-07-24T09:14:27;23.20;98.20
4374;DHT22;2201;51.100;6.814;2023-07-24T09:17:03;23.10;98.20
4374;DHT22;2201;51.100;6.814;2023-07-24T09:19:30;23.00;98.20
4374;DHT22;2201;51.100;6.814;2023-07-24T09:22:10;22.90;98.20
4374;DHT22;2201;51.100;6.814;2023-07-24T09:24:38;22.70;98.20
4374;DHT22;2201;51.100;6.814;2023-07-24T09:27:07;22.60;98.20
4374;DHT22;2201;51.100;6.814;2023-07-24T09:29:35;22.50;98.20
4374;DHT22;2201;51.100;6.814;2023-07-24T09:32:03;22.50;98.20
4374;DHT22;2201;51.100;6.814;2023-07-24T09:34:32;22.50;98.20
4374;DHT22;2201;51.100;6.814;2023-07-24T09:36:59;22.50;98.20
4374;DHT22;2201;51.100;6.814;2023-07-24T09:39:27;22.50;98.20
4374;DHT22;2201;51.100;6.814;2023-07-24T09:42:06;22.60;98.20
4374;DHT22;2201;51.100;6.814;2023-07-24T09:44:35;22.70;98.20
4374;DHT22;2201;51.100;6.814;2023-07-24T09:47:03;22.90;98.20
4374;DHT22;2201;51.100;6.814;2023-07-24T09:49:31;23.00;98.20
4374;DHT22;2201;51.100;6.814;2023-07-24T09:51:59;23.10;98.20
4374;DHT22;2201;51.100;6.814;2023-07-24T09:54:33;23.20;98.20
4374;DHT22;2201;51.100;6.814;2023-07-24T09:57:08;23.30;98.20
4374;DHT22;2201;51.100;6.814;2023-07-24T09:59:40;23.50;98.20
4374;DHT22;2201;51.100;6.814;2023-07-24T10:02:11;23.60;98.20
4374;DHT22;2201;51.100;6.814;2023-07-24T10:04:40;23.80;98.20
4374;DHT22;2201;51.100;6.814;2023-07-24T10:07:07;24.10;98.20
4374;DHT22;2201;51.100;6.814;2023-07-24T10:09:36;24.30;97.30
4374;DHT22;2201;51.100;6.814;2023-07-24T10:12:04;24.40;97.00
4374;DHT22;2201;51.100;6.814;2023-07-24T10:14:33;24.50;97.80
4374;DHT22;2201;51.100;6.814;2023-07-24T10:17:01;24.60;95.70
4374;DHT22;2201;51.100;6.814;2023-07-24T10:19:35;24.60;95.00
4374;DHT22;2201;51.100;6.814;2023-07-24T10:22:16;24.60;95.50
4374;DHT22;2201;51.100;6.814;2023-07-24T10:24:45;24.50;94.70
4374;DHT22;2201;51.100;6.814;2023-07-24T10:27:12;24.50;95.20
4374;DHT22;2201;51.100;6.814;2023-07-24T10:29:40;24.40;95.20
4374;DHT22;2201;51.100;6.814;2023-07-24T10:32:18;24.50;94.90
4374;DHT22;2201;51.100;6.814;2023-07-24T10:34:45;24.60;94.50
4374;DHT22;2201;51.100;6.814;2023-07-24T10:37:32;24.80;94.50
4374;DHT22;2201;51.100;6.814;2023-07-24T10:39:59;25.10;93.10
4374;DHT22;2201;51.100;6.814;2023-07-24T10:42:26;25.30;92.80
4374;DHT22;2201;51.100;6.814;2023-07-24T10:45:04;25.40;91.70
4374;DHT22;2201;51.100;6.814;2023-07-24T10:47:31;25.50;91.30
4374;DHT22;2201;51.100;6.814;2023-07-24T10:49:58;25.50;91.70
4374;DHT22;2201;51.100;6.814;2023-07-24T10:52:30;25.50;91.40
4374;DHT22;2201;51.100;6.814;2023-07-24T10:55:00;25.60;92.10
4374;DHT22;2201;51.100;6.814;2023-07-24T10:57:28;25.90;91.10
4374;DHT22;2201;51.100;6.814;2023-07-24T10:59:59;26.10;90.00
4374;DHT22;2201;51.100;6.814;2023-07-24T11:02:27;26.20;89.70
4374;DHT22;2201;51.100;6.814;2023-07-24T11:04:58;26.20;89.10
4374;DHT22;2201;51.100;6.814;2023-07-24T11:07:32;26.10;88.70
4374;DHT22;2201;51.100;6.814;2023-07-24T11:09:59;26.00;89.20
4374;DHT22;2201;51.100;6.814;2023-07-24T11:12:26;25.70;91.10
4374;DHT22;2201;51.100;6.814;2023-07-24T11:14:56;25.50;92.20
4374;DHT22;2201;51.100;6.814;2023-07-24T11:17:35;25.20;96.00
4374;DHT22;2201;51.100;6.814;2023-07-24T11:20:08;24.80;98.20
4374;DHT22;2201;51.100;6.814;2023-07-24T11:22:35;24.40;98.20
4374;DHT22;2201;51.100;6.814;2023-07-24T11:25:03;23.80;98.20
4374;DHT22;2201;51.100;6.814;2023-07-24T11:27:32;23.50;98.20
4374;DHT22;2201;51.100;6.814;2023-07-24T11:29:59;23.30;98.20
4374;DHT22;2201;51.100;6.814;2023-07-24T11:32:26;23.10;98.20
4374;DHT22;2201;51.100;6.814;2023-07-24T11:34:55;22.90;98.20
4374;DHT22;2201;51.100;6.814;2023-07-24T11:37:22;22.80;98.20
4374;DHT22;2201;51.100;6.814;2023-07-24T11:39:56;22.60;98.20
4374;DHT22;2201;51.100;6.814;2023-07-24T11:42:27;22.40;98.20
4374;DHT22;2201;51.100;6.814;2023-07-24T11:44:55;22.20;98.20
4374;DHT22;2201;51.100;6.814;2023-07-24T11:47:22;22.10;98.20
4374;DHT22;2201;51.100;6.814;2023-07-24T11:50:00;21.90;98.20
4374;DHT22;2201;51.100;6.814;2023-07-24T11:52:38;21.70;98.20
4374;DHT22;2201;51.100;6.814;2023-07-24T11:55:07;21.40;98.20
4374;DHT22;2201;51.100;6.814;2023-07-24T11:57:34;21.00;98.20
4374;DHT22;2201;51.100;6.814;2023-07-24T12:00:02;20.70;98.20
4374;DHT22;2201;51.100;6.814;2023-07-24T12:02:32;20.50;98.20
4374;DHT22;2201;51.100;6.814;2023-07-24T12:05:00;20.30;98.20
4374;DHT22;2201;51.100;6.814;2023-07-24T12:07:32;20.20;98.20
4374;DHT22;2201;51.100;6.814;2023-07-24T12:10:00;20.10;98.20
4374;DHT22;2201;51.100;6.814;2023-07-24T12:12:37;20.20;98.20
4374;DHT22;2201;51.100;6.814;2023-07-24T12:15:06;20.40;98.20
4374;DHT22;2201;51.100;6.814;2023-07-24T12:17:33;20.70;98.20
4374;DHT22;2201;51.100;6.814;2023-07-24T12:20:02;21.10;98.20
4374;DHT22;2201;51.100;6.814;2023-07-24T12:22:30;21.30;98.20
4374;DHT22;2201;51.100;6.814;2023-07-24T12:24:57;21.60;98.20
4374;DHT22;2201;51.100;6.814;2023-07-24T12:27:24;21.90;98.20
4374;DHT22;2201;51.100;6.814;2023-07-24T12:29:51;22.20;98.20
4374;DHT22;2201;51.100;6.814;2023-07-24T12:32:19;22.70;98.20
4374;DHT22;2201;51.100;6.814;2023-07-24T12:34:49;23.10;98.20
4374;DHT22;2201;51.100;6.814;2023-07-24T12:37:18;23.40;98.20
4374;DHT22;2201;51.100;6.814;2023-07-24T12:39:46;23.70;98.20
4374;DHT22;2201;51.100;6.814;2023-07-24T12:42:14;24.20;98.20
4374;DHT22;2201;51.100;6.814;2023-07-24T12:44:42;24.70;98.20
4374;DHT22;2201;51.100;6.814;2023-07-24T12:47:10;25.10;98.20
4374;DHT22;2201;51.100;6.814;2023-07-24T12:49:39;25.40;98.20
4374;DHT22;2201;51.100;6.814;2023-07-24T12:52:07;25.70;98.20
4374;DHT22;2201;51.100;6.814;2023-07-24T12:54:38;26.00;98.20
4374;DHT22;2201;51.100;6.814;2023-07-24T12:57:05;26.20;97.40
4374;DHT22;2201;51.100;6.814;2023-07-24T12:59:32;26.50;98.20
4374;DHT22;2201;51.100;6.814;2023-07-24T13:01:59;26.70;96.20
4374;DHT22;2201;51.100;6.814;2023-07-24T13:04:26;26.80;94.20
4374;DHT22;2201;51.100;6.814;2023-07-24T13:06:53;26.90;93.80
4374;DHT22;2201;51.100;6.814;2023-07-24T13:09:21;27.00;93.50
4374;DHT22;2201;51.100;6.814;2023-07-24T13:11:50;27.00;94.40
4374;DHT22;2201;51.100;6.814;2023-07-24T13:14:20;27.20;94.60
4374;DHT22;2201;51.100;6.814;2023-07-24T13:16:49;27.50;91.40
4374;DHT22;2201;51.100;6.814;2023-07-24T13:19:16;27.60;90.60
4374;DHT22;2201;51.100;6.814;2023-07-24T13:21:43;27.40;90.30
4374;DHT22;2201;51.100;6.814;2023-07-24T13:24:11;27.30;90.40
4374;DHT22;2201;51.100;6.814;2023-07-24T13:26:38;27.00;91.70
4374;DHT22;2201;51.100;6.814;2023-07-24T13:29:07;26.70;91.60
4374;DHT22;2201;51.100;6.814;2023-07-24T13:31:34;26.40;92.10
4374;DHT22;2201;51.100;6.814;2023-07-24T13:34:02;26.20;92.10
4374;DHT22;2201;51.100;6.814;2023-07-24T13:36:29;26.00;92.30
4374;DHT22;2201;51.100;6.814;2023-07-24T13:38:56;25.80;93.20
4374;DHT22;2201;51.100;6.814;2023-07-24T13:41:24;25.70;93.70
4374;DHT22;2201;51.100;6.814;2023-07-24T13:43:51;25.60;95.10
4374;DHT22;2201;51.100;6.814;2023-07-24T13:46:19;25.60;95.20
4374;DHT22;2201;51.100;6.814;2023-07-24T13:48:46;25.40;93.80
4374;DHT22;2201;51.100;6.814;2023-07-24T13:51:13;25.40;94.30
4374;DHT22;2201;51.100;6.814;2023-07-24T13:53:40;25.40;95.20
4374;DHT22;2201;51.100;6.814;2023-07-24T13:56:07;25.40;95.20
4374;DHT22;2201;51.100;6.814;2023-07-24T13:58:35;25.30;96.20
4374;DHT22;2201;51.100;6.814;2023-07-24T14:01:02;25.30;95.50
4374;DHT22;2201;51.100;6.814;2023-07-24T14:03:30;25.20;96.00
4374;DHT22;2201;51.100;6.814;2023-07-24T14:05:57;25.20;96.40
4374;DHT22;2201;51.100;6.814;2023-07-24T14:08:25;25.00;96.50
4374;DHT22;2201;51.100;6.814;2023-07-24T14:10:52;25.00;96.90
4374;DHT22;2201;51.100;6.814;2023-07-24T14:13:19;25.00;96.20
4374;DHT22;2201;51.100;6.814;2023-07-24T14:15:46;25.00;96.70
4374;DHT22;2201;51.100;6.814;2023-07-24T14:18:13;25.30;97.70
4374;DHT22;2201;51.100;6.814;2023-07-24T14:20:42;25.50;95.90
4374;DHT22;2201;51.100;6.814;2023-07-24T14:28:22;25.40;94.90
4374;DHT22;2201;51.100;6.814;2023-07-24T14:30:49;25.30;94.70
4374;DHT22;2201;51.100;6.814;2023-07-24T14:33:16;25.20;94.60
4374;DHT22;2201;51.100;6.814;2023-07-24T14:35:48;25.10;95.40
4374;DHT22;2201;51.100;6.814;2023-07-24T14:38:15;25.10;96.30
4374;DHT22;2201;51.100;6.814;2023-07-24T14:40:42;25.10;95.90
4374;DHT22;2201;51.100;6.814;2023-07-24T14:43:09;25.10;95.20
4374;DHT22;2201;51.100;6.814;2023-07-24T14:45:36;25.20;95.30
4374;DHT22;2201;51.100;6.814;2023-07-24T14:48:07;25.20;95.60
4374;DHT22;2201;51.100;6.814;2023-07-24T14:51:06;25.20;95.70
4374;DHT22;2201;51.100;6.814;2023-07-24T14:53:53;24.90;96.20
4374;DHT22;2201;51.100;6.814;2023-07-24T15:00:00;24.20;98.20
4374;DHT22;2201;51.100;6.814;2023-07-24T15:02:30;23.60;98.20
4374;DHT22;2201;51.100;6.814;2023-07-24T15:05:16;23.20;98.20
4374;DHT22;2201;51.100;6.814;2023-07-24T15:08:28;23.10;98.20
4374;DHT22;2201;51.100;6.814;2023-07-24T15:11:15;23.20;98.20
4374;DHT22;2201;51.100;6.814;2023-07-24T15:16:27;23.90;98.20
4374;DHT22;2201;51.100;6.814;2023-07-24T15:19:06;24.20;98.20
4374;DHT22;2201;51.100;6.814;2023-07-24T15:25:00;24.40;98.20
4374;DHT22;2201;51.100;6.814;2023-07-24T15:27:28;24.50;98.20
4374;DHT22;2201;51.100;6.814;2023-07-24T15:30:02;24.60;98.20
4374;DHT22;2201;51.100;6.814;2023-07-24T15:32:33;24.60;98.20
4374;DHT22;2201;51.100;6.814;2023-07-24T15:35:03;24.80;98.20
4374;DHT22;2201;51.100;6.814;2023-07-24T15:37:48;24.80;98.20
4374;DHT22;2201;51.100;6.814;2023-07-24T15:40:50;24.70;98.20
4374;DHT22;2201;51.100;6.814;2023-07-24T15:43:27;24.60;98.20
4374;DHT22;2201;51.100;6.814;2023-07-24T15:46:04;24.60;98.20
4374;DHT22;2201;51.100;6.814;2023-07-24T15:48:34;24.50;98.20
4374;DHT22;2201;51.100;6.814;2023-07-24T15:51:35;24.50;98.20
4374;DHT22;2201;51.100;6.814;2023-07-24T15:54:02;24.60;98.20
4374;DHT22;2201;51.100;6.814;2023-07-24T15:56:45;24.80;98.20
4374;DHT22;2201;51.100;6.814;2023-07-24T15:59:17;24.90;98.20
4374;DHT22;2201;51.100;6.814;2023-07-24T16:01:48;25.00;98.20
4374;DHT22;2201;51.100;6.814;2023-07-24T16:04:18;25.10;98.20
4374;DHT22;2201;51.100;6.814;2023-07-24T16:07:06;25.20;98.20
4374;DHT22;2201;51.100;6.814;2023-07-24T16:09:41;25.20;98.00
4374;DHT22;2201;51.100;6.814;2023-07-24T16:15:23;25.00;97.70
4374;DHT22;2201;51.100;6.814;2023-07-24T16:17:54;25.00;96.80
4374;DHT22;2201;51.100;6.814;2023-07-24T16:20:40;25.10;96.80
4374;DHT22;2201;51.100;6.814;2023-07-24T16:23:20;25.10;94.20
4374;DHT22;2201;51.100;6.814;2023-07-24T16:25:47;25.00;93.60
4374;DHT22;2201;51.100;6.814;2023-07-24T16:28:16;24.70;93.10
4374;DHT22;2201;51.100;6.814;2023-07-24T16:33:51;24.20;95.60
4374;DHT22;2201;51.100;6.814;2023-07-24T16:36:18;23.80;95.90
4374;DHT22;2201;51.100;6.814;2023-07-24T16:38:45;23.60;97.10